Bay Sprit I I — WDE9083 — position and weather

sailwx.info

Track history (hours):
 
Tides and Currents Weather Stations Pressure Air Temp Water Temp Dewpoint Dewpoint Depression Visibility Wind Speed Wind Dir Waves Ship Positions

Bay Sprit I I

Owner: The Florida Aqurium, Brandon, FL. More information available from US FCC via Universal Licensing System and Coast Guard Vessel Documentation Center.

Last reported at 2018-May-15 14:20 UTC. Time now 2018-Aug-19 22:51 UTC.
Position N 27°57' W 082°27'.
Warning: this ship's position is months out of date.

Length 22 m.

Type: Passenger vessel. MMSI: 367413230.

Date/timePositionNaut miles runAvg speedWind from/ knotsBaromVisibWave heightAir tempDewpointWater temp
2018-May-15 14:20N 27°57' W 082°27'1 3.0
2018-May-15 14:00N 27°56' W 082°27'0 0.4
2018-May-15 13:28N 27°56' W 082°27'1 1.8
2018-May-15 13:00N 27°57' W 082°27'0 0.1
2018-May-15 12:28N 27°57' W 082°27'0 0.0
2018-May-14 19:50N 27°57' W 082°27'2 5.7
2018-May-14 19:30N 27°55' W 082°27'2 3.5
2018-May-14 19:00N 27°53' W 082°27'4 7.1
2018-May-14 18:30N 27°57' W 082°27'2 3.0
2018-May-14 17:56N 27°55' W 082°27'1 3.0
2018-May-14 17:30N 27°54' W 082°26'3 5.8
2018-May-14 17:00N 27°56' W 082°27'0 0.0
2018-May-13 21:34N 27°57' W 082°27'0 0.1
2018-May-13 21:30N 27°57' W 082°27'2 3.8
2018-May-13 21:00N 27°55' W 082°27'2 3.7
2018-May-13 20:30N 27°53' W 082°26'4 7.1
2018-May-13 20:00N 27°56' W 082°27'1 1.7
2018-May-13 19:30N 27°56' W 082°27'2 4.9
2018-May-13 19:01N 27°53' W 082°26'3 6.6
2018-May-13 18:30N 27°57' W 082°27'1 1.9
2018-May-13 18:01N 27°56' W 082°27'2 4.4
2018-May-13 17:30N 27°53' W 082°26'3 5.5
2018-May-13 16:55N 27°57' W 082°27'0 0.0
2018-May-12 21:26N 27°57' W 082°27'2 3.8
2018-May-12 21:00N 27°55' W 082°27'1 1.7
2018-May-12 20:29N 27°54' W 082°27'2 5.0
2018-May-12 20:00N 27°56' W 082°27'1 2.8
2018-May-12 19:30N 27°55' W 082°27'1 1.9
2018-May-12 19:00N 27°54' W 082°27'2 4.6
2018-May-12 18:28N 27°57' W 082°27'1 2.6
2018-May-12 18:00N 27°55' W 082°27'1 2.6
2018-May-12 17:30N 27°54' W 082°27'2 4.7
2018-May-12 16:58N 27°57' W 082°27'0 0.0
2018-May-12 16:28N 27°57' W 082°27'0 0.0
2018-May-11 19:52N 27°57' W 082°27'1 3.5
2018-May-11 19:30N 27°55' W 082°27'1 2.3
2018-May-11 19:00N 27°54' W 082°27'2 4.5
2018-May-11 18:28N 27°57' W 082°27'1 2.1
2018-May-11 18:00N 27°56' W 082°27'1 2.5
2018-May-11 17:29N 27°54' W 082°27'2 4.6
2018-May-11 17:01N 27°56' W 082°27'0 0.3
2018-May-11 16:28N 27°57' W 082°27'0 0.0
2018-May-11 15:58N 27°57' W 082°27'0 0.0
2018-May-11 15:28N 27°57' W 082°27'0 0.0
2018-May-11 14:58N 27°57' W 082°27'0 0.0
2018-May-11 14:28N 27°57' W 082°27'0 0.0
2018-May-11 13:58N 27°57' W 082°27'0 0.0
2018-May-11 13:28N 27°57' W 082°27'0 0.0
2018-May-11 12:58N 27°57' W 082°27'0 0.0
2018-May-11 12:28N 27°57' W 082°27'0 0.0
2018-May-10 19:48N 27°57' W 082°27'1 4.0
2018-May-10 19:30N 27°55' W 082°27'1 2.0
2018-May-10 19:00N 27°54' W 082°27'2 4.5
2018-May-10 18:30N 27°57' W 082°27'1 1.8
2018-May-10 18:00N 27°56' W 082°27'2 3.8
2018-May-10 17:29N 27°54' W 082°27'3 6.1
2018-May-10 17:00N 27°57' W 082°27'0 0.1
2018-May-10 16:23N 27°57' W 082°27'1 2.8
2018-May-10 16:00N 27°56' W 082°27'1 2.5
2018-May-10 15:30N 27°54' W 082°27'2 4.5
2018-May-10 15:00N 27°57' W 082°27'1 1.9
2018-May-10 14:30N 27°56' W 082°27'1 2.3
2018-May-10 14:00N 27°55' W 082°26'2 3.1
2018-May-10 13:30N 27°57' W 082°27'0 0.0
2018-May-10 13:00N 27°57' W 082°27'0 0.0
2018-May-09 21:22N 27°57' W 082°27'2 5.0
2018-May-09 21:00N 27°55' W 082°27'1 2.5
2018-May-09 20:30N 27°56' W 082°26'1 2.6
2018-May-09 20:00N 27°57' W 082°27'1 2.8
2018-May-09 19:30N 27°55' W 082°27'2 3.5
2018-May-09 19:00N 27°53' W 082°27'3 6.3
2018-May-09 18:30N 27°56' W 082°27'1 2.5
2018-May-09 18:00N 27°55' W 082°27'2 4.5
2018-May-09 17:30N 27°53' W 082°26'4 7.1
2018-May-09 17:00N 27°57' W 082°27'0 0.0
2018-May-09 16:30N 27°57' W 082°27'0 0.0
2018-May-09 16:00N 27°57' W 082°27'1 2.8
2018-May-09 15:30N 27°55' W 082°27'1 2.3
2018-May-09 15:00N 27°54' W 082°26'2 5.0
2018-May-09 14:30N 27°57' W 082°27'2 3.7
2018-May-09 14:00N 27°55' W 082°27'0 0.3
2018-May-09 13:30N 27°55' W 082°27'2 4.0
2018-May-09 13:00N 27°57' W 082°27'0 0.0
2018-May-09 12:30N 27°57' W 082°27'0 0.0
2018-May-08 21:21N 27°57' W 082°27'2 4.9
2018-May-08 21:00N 27°55' W 082°27'1 1.4
2018-May-08 20:30N 27°54' W 082°26'2 4.4
2018-May-08 19:59N 27°57' W 082°27'2 3.7
2018-May-08 19:28N 27°55' W 082°27'2 4.1
2018-May-08 19:00N 27°53' W 082°27'4 7.1
2018-May-08 18:28N 27°57' W 082°27'1 2.4
2018-May-08 18:00N 27°55' W 082°27'2 3.0
2018-May-08 17:27N 27°54' W 082°26'3 5.8
2018-May-08 16:58N 27°57' W 082°27'0 0.0
2018-May-08 16:28N 27°57' W 082°27'1 1.4
2018-May-08 16:00N 27°56' W 082°27'3 5.5
2018-May-08 15:30N 27°53' W 082°27'3 6.7
2018-May-08 14:59N 27°57' W 082°27'0 0.0
2018-May-08 14:29N 27°57' W 082°27'1 1.8
2018-May-08 14:00N 27°56' W 082°27'0 0.6
2018-May-08 13:29N 27°56' W 082°27'1 0.0
2018-May-07 19:44N 27°57' W 082°27'1 5.3
2018-May-07 19:30N 27°55' W 082°27'3 5.1
2018-May-07 19:00N 27°53' W 082°26'4 7.6
2018-May-07 18:30N 27°57' W 082°27'1 2.4
2018-May-07 18:00N 27°55' W 082°27'2 4.4
2018-May-07 17:30N 27°53' W 082°27'3 6.8
2018-May-07 17:00N 27°56' W 082°27'0 0.0
2018-May-06 19:52N 27°57' W 082°27'2 5.4
2018-May-06 19:30N 27°55' W 082°27'1 3.0
2018-May-06 19:00N 27°53' W 082°27'3 6.9
2018-May-06 18:30N 27°57' W 082°27'1 2.4
2018-May-06 18:00N 27°55' W 082°27'1 2.5
2018-May-06 17:30N 27°54' W 082°27'2 4.9
2018-May-06 17:00N 27°57' W 082°27'0 0.0
2018-May-05 19:46N 27°57' W 082°27'1 3.3
2018-May-05 19:30N 27°56' W 082°27'2 4.0
2018-May-05 19:00N 27°54' W 082°27'3 5.6
2018-May-05 18:29N 27°57' W 082°27'2 3.2
2018-May-05 18:00N 27°55' W 082°27'1 1.6
2018-May-05 17:30N 27°54' W 082°27'2 4.6
2018-May-05 16:59N 27°57' W 082°27'0 0.0
2018-May-05 16:29N 27°57' W 082°27'0 0.0
2018-May-05 15:59N 27°57' W 082°27'0 0.0
2018-May-05 15:29N 27°57' W 082°27'0 0.0
2018-May-05 14:59N 27°57' W 082°27'0 0.0
2018-May-05 14:29N 27°57' W 082°27'  
Track history (hours):
 
Tides and Currents Weather Stations Pressure Air Temp Water Temp Dewpoint Dewpoint Depression Visibility Wind Speed Wind Dir Waves Ship Positions

Bay Sprit I I

Owner: The Florida Aqurium, Brandon, FL. More information available from US FCC via Universal Licensing System and Coast Guard Vessel Documentation Center.

Last reported at 2018-May-15 14:20 UTC. Time now 2018-Aug-19 22:51 UTC.
Position N 27°57' W 082°27'.
Warning: this ship's position is months out of date.

Length 22 m.

Type: Passenger vessel. MMSI: 367413230.

Date/timePositionNaut miles runAvg speedWind from/ knotsBaromVisibWave heightAir tempDewpointWater temp
2018-May-15 14:20N 27°57' W 082°27'1 3.0
2018-May-15 14:00N 27°56' W 082°27'0 0.4
2018-May-15 13:28N 27°56' W 082°27'1 1.8
2018-May-15 13:00N 27°57' W 082°27'0 0.1
2018-May-15 12:28N 27°57' W 082°27'0 0.0
2018-May-14 19:50N 27°57' W 082°27'2 5.7
2018-May-14 19:30N 27°55' W 082°27'2 3.5
2018-May-14 19:00N 27°53' W 082°27'4 7.1
2018-May-14 18:30N 27°57' W 082°27'2 3.0
2018-May-14 17:56N 27°55' W 082°27'1 3.0
2018-May-14 17:30N 27°54' W 082°26'3 5.8
2018-May-14 17:00N 27°56' W 082°27'0 0.0
2018-May-13 21:34N 27°57' W 082°27'0 0.1
2018-May-13 21:30N 27°57' W 082°27'2 3.8
2018-May-13 21:00N 27°55' W 082°27'2 3.7
2018-May-13 20:30N 27°53' W 082°26'4 7.1
2018-May-13 20:00N 27°56' W 082°27'1 1.7
2018-May-13 19:30N 27°56' W 082°27'2 4.9
2018-May-13 19:01N 27°53' W 082°26'3 6.6
2018-May-13 18:30N 27°57' W 082°27'1 1.9
2018-May-13 18:01N 27°56' W 082°27'2 4.4
2018-May-13 17:30N 27°53' W 082°26'3 5.5
2018-May-13 16:55N 27°57' W 082°27'0 0.0
2018-May-12 21:26N 27°57' W 082°27'2 3.8
2018-May-12 21:00N 27°55' W 082°27'1 1.7
2018-May-12 20:29N 27°54' W 082°27'2 5.0
2018-May-12 20:00N 27°56' W 082°27'1 2.8
2018-May-12 19:30N 27°55' W 082°27'1 1.9
2018-May-12 19:00N 27°54' W 082°27'2 4.6
2018-May-12 18:28N 27°57' W 082°27'1 2.6
2018-May-12 18:00N 27°55' W 082°27'1 2.6
2018-May-12 17:30N 27°54' W 082°27'2 4.7
2018-May-12 16:58N 27°57' W 082°27'0 0.0
2018-May-12 16:28N 27°57' W 082°27'0 0.0
2018-May-11 19:52N 27°57' W 082°27'1 3.5
2018-May-11 19:30N 27°55' W 082°27'1 2.3
2018-May-11 19:00N 27°54' W 082°27'2 4.5
2018-May-11 18:28N 27°57' W 082°27'1 2.1
2018-May-11 18:00N 27°56' W 082°27'1 2.5
2018-May-11 17:29N 27°54' W 082°27'2 4.6
2018-May-11 17:01N 27°56' W 082°27'0 0.3
2018-May-11 16:28N 27°57' W 082°27'0 0.0
2018-May-11 15:58N 27°57' W 082°27'0 0.0
2018-May-11 15:28N 27°57' W 082°27'0 0.0
2018-May-11 14:58N 27°57' W 082°27'0 0.0
2018-May-11 14:28N 27°57' W 082°27'0 0.0
2018-May-11 13:58N 27°57' W 082°27'0 0.0
2018-May-11 13:28N 27°57' W 082°27'0 0.0
2018-May-11 12:58N 27°57' W 082°27'0 0.0
2018-May-11 12:28N 27°57' W 082°27'0 0.0
2018-May-10 19:48N 27°57' W 082°27'1 4.0
2018-May-10 19:30N 27°55' W 082°27'1 2.0
2018-May-10 19:00N 27°54' W 082°27'2 4.5
2018-May-10 18:30N 27°57' W 082°27'1 1.8
2018-May-10 18:00N 27°56' W 082°27'2 3.8
2018-May-10 17:29N 27°54' W 082°27'3 6.1
2018-May-10 17:00N 27°57' W 082°27'0 0.1
2018-May-10 16:23N 27°57' W 082°27'1 2.8
2018-May-10 16:00N 27°56' W 082°27'1 2.5
2018-May-10 15:30N 27°54' W 082°27'2 4.5
2018-May-10 15:00N 27°57' W 082°27'1 1.9
2018-May-10 14:30N 27°56' W 082°27'1 2.3
2018-May-10 14:00N 27°55' W 082°26'2 3.1
2018-May-10 13:30N 27°57' W 082°27'0 0.0
2018-May-10 13:00N 27°57' W 082°27'0 0.0
2018-May-09 21:22N 27°57' W 082°27'2 5.0
2018-May-09 21:00N 27°55' W 082°27'1 2.5
2018-May-09 20:30N 27°56' W 082°26'1 2.6
2018-May-09 20:00N 27°57' W 082°27'1 2.8
2018-May-09 19:30N 27°55' W 082°27'2 3.5
2018-May-09 19:00N 27°53' W 082°27'3 6.3
2018-May-09 18:30N 27°56' W 082°27'1 2.5
2018-May-09 18:00N 27°55' W 082°27'2 4.5
2018-May-09 17:30N 27°53' W 082°26'4 7.1
2018-May-09 17:00N 27°57' W 082°27'0 0.0
2018-May-09 16:30N 27°57' W 082°27'0 0.0
2018-May-09 16:00N 27°57' W 082°27'1 2.8
2018-May-09 15:30N 27°55' W 082°27'1 2.3
2018-May-09 15:00N 27°54' W 082°26'2 5.0
2018-May-09 14:30N 27°57' W 082°27'2 3.7
2018-May-09 14:00N 27°55' W 082°27'0 0.3
2018-May-09 13:30N 27°55' W 082°27'2 4.0
2018-May-09 13:00N 27°57' W 082°27'0 0.0
2018-May-09 12:30N 27°57' W 082°27'0 0.0
2018-May-08 21:21N 27°57' W 082°27'2 4.9
2018-May-08 21:00N 27°55' W 082°27'1 1.4
2018-May-08 20:30N 27°54' W 082°26'2 4.4
2018-May-08 19:59N 27°57' W 082°27'2 3.7
2018-May-08 19:28N 27°55' W 082°27'2 4.1
2018-May-08 19:00N 27°53' W 082°27'4 7.1
2018-May-08 18:28N 27°57' W 082°27'1 2.4
2018-May-08 18:00N 27°55' W 082°27'2 3.0
2018-May-08 17:27N 27°54' W 082°26'3 5.8
2018-May-08 16:58N 27°57' W 082°27'0 0.0
2018-May-08 16:28N 27°57' W 082°27'1 1.4
2018-May-08 16:00N 27°56' W 082°27'3 5.5
2018-May-08 15:30N 27°53' W 082°27'3 6.7
2018-May-08 14:59N 27°57' W 082°27'0 0.0
2018-May-08 14:29N 27°57' W 082°27'1 1.8
2018-May-08 14:00N 27°56' W 082°27'0 0.6
2018-May-08 13:29N 27°56' W 082°27'1 0.0
2018-May-07 19:44N 27°57' W 082°27'1 5.3
2018-May-07 19:30N 27°55' W 082°27'3 5.1
2018-May-07 19:00N 27°53' W 082°26'4 7.6
2018-May-07 18:30N 27°57' W 082°27'1 2.4
2018-May-07 18:00N 27°55' W 082°27'2 4.4
2018-May-07 17:30N 27°53' W 082°27'3 6.8
2018-May-07 17:00N 27°56' W 082°27'0 0.0
2018-May-06 19:52N 27°57' W 082°27'2 5.4
2018-May-06 19:30N 27°55' W 082°27'1 3.0
2018-May-06 19:00N 27°53' W 082°27'3 6.9
2018-May-06 18:30N 27°57' W 082°27'1 2.4
2018-May-06 18:00N 27°55' W 082°27'1 2.5
2018-May-06 17:30N 27°54' W 082°27'2 4.9
2018-May-06 17:00N 27°57' W 082°27'0 0.0
2018-May-05 19:46N 27°57' W 082°27'1 3.3
2018-May-05 19:30N 27°56' W 082°27'2 4.0
2018-May-05 19:00N 27°54' W 082°27'3 5.6
2018-May-05 18:29N 27°57' W 082°27'2 3.2
2018-May-05 18:00N 27°55' W 082°27'1 1.6
2018-May-05 17:30N 27°54' W 082°27'2 4.6
2018-May-05 16:59N 27°57' W 082°27'0 0.0
2018-May-05 16:29N 27°57' W 082°27'0 0.0
2018-May-05 15:59N 27°57' W 082°27'0 0.0
2018-May-05 15:29N 27°57' W 082°27'0 0.0
2018-May-05 14:59N 27°57' W 082°27'0 0.0
2018-May-05 14:29N 27°57' W 082°27'  

Dump ship's entire track history